Colorado AWOS List, Phone Numbers, Maps

USA |  
| Search AWOS

Rocky Mountain States: Montana | Wyoming | Colorado | New Mexico

Complete weather reports: Colorado

Legend: KFNL = METAR available Follow your local AWOS on AV Mobile = METAR available on AV Mobile
Station Colorado Location Frequency Phone
KAKOFAA ID AKO, ASOS, KAKO 081753Z AUTO 31012KT 10SM CLR M02/M07 A3037 RMK AO2 SLP322 T10171067 11017 21089 50002 Follow KAKO on AV Mobile COLORADO PLAINS REGIONAL 135.475 970-345-2320
KALSFAA ID ALS, ASOS, KALS 081752Z AUTO 26003KT 10SM CLR 02/M10 A3048 Follow KALS on AV Mobile SAN LUIS VALLEY REGIONAL 135.175 719-589-5669
KASEFAA ID ASE, ASOS, KASE 081753Z 00000KT 10SM CLR M02/M10 A3057 Follow KASE on AV Mobile ASPEN-PITKIN COUNTY AIRPORT 120.400 970-925-9168
KBKFFAA ID BKF, KBKF 081758Z 08003KT 10SM FEW080 SCT110 BKN220 04/M07 A3040 Follow KBKF on AV Mobile Aurora, Buckley Air Force Base Airport
K7BMFAA ID 7BM, AWOS-3, K7BM 081810Z AUTO 24010G18KT 10SM SCT070 06/M12 A3049 RMK AO2 Follow K7BM on AV Mobile Cottonwood Pass 132.050 303-512-4919
KBDUFAA ID BDU, AWOS-3, KBDU 081817Z AUTO 36007KT 10SM CLR 01/M06 A3041 RMK AO2 Follow KBDU on AV Mobile Boulder Municipal Airport 118.825 303-541-9540
KAEJFAA ID AEJ, AWOS-3, KAEJ 081815Z AUTO 33021G28KT 10SM CLR 04/M08 A3045 RMK AO2 T00401076 Follow KAEJ on AV Mobile Central Colorado Regional Airport 132.925 719-395-2599
KITRFAA ID ITR, ASOS, KITR 081753Z AUTO 33015G23KT 10SM CLR 01/M09 A3038 RMK AO2 PK WND 32027/1730 SLP310 T00061089 10006 21067 51003 Follow KITR on AV Mobile Kit Carson County Airport 135.225 719-346-7036
K1V6FAA ID 1V6, AWOS-3, K1V6 081815Z AUTO 00000KT 10SM CLR 02/M03 A3044 RMK AO2 Follow K1V6 on AV Mobile CANON CITY 120.025
KAFFFAA ID AFF, KAFF 081758Z 16009KT 10SM FEW060 FEW150 BKN220 02/M07 A3039 RMK AO2A SLP329 4/007 T00221071 10025 21092 52016 Follow KAFF on AV Mobile Air Force Academy
KCOSFAA ID COS, ASOS, KCOS 081754Z 16004KT 10SM SCT220 M02/M07 A3042 Follow KCOS on AV Mobile COLORADO SPRINGS MUNI 125.000 719-637-9696
KFLYFAA ID FLY, AWOS-3PT, KFLY 081821Z AUTO 00000KT 10SM CLR 04/M07 A3040 RMK AO2 T00421070 Follow KFLY on AV Mobile Meadowlake Airport, Peyton, CO 118.450 719-683-5371
KCCUFAA ID CCU, AWOS-3, KCCU 081816Z AUTO 29015G19KT 10SM CLR M04/M10 A3055 RMK AO2 Follow KCCU on AV Mobile Copper Mountain, Red Cliff Pass 118.075 970-968-1715
KCEZFAA ID CEZ, ASOS, KCEZ 081753Z AUTO 06003KT 10SM CLR 03/M06 A3051 RMK AO2 SLP345 T00331061 10033 21106 51004 Follow KCEZ on AV Mobile CORTEZ MONTEZUMA COUNTY AIRPORT 135.625 970-564-0193
KCAGFAA ID CAG, ASOS, KCAG 081753Z AUTO 00000KT 10SM CLR M10/M14 A3063 Follow KCAG on AV Mobile CRAIG MOFFAT AIRPORT 135.425 970-824-2373
KRCVFAA ID RCV, AWOS-3PT, KRCV 081320Z AUTO 00000KT 10SM CLR M11/M16 A3046 RMK AO2 T11081164 Follow KRCV on AV Mobile DEL NORTE 118.275 719-657-9017
KAJZFAA ID AJZ, AWOS-3, KAJZ 081815Z AUTO 10003KT 10SM CLR 02/M07 A3062 RMK AO2 T00151067 Follow KAJZ on AV Mobile Blake Field Airport 134.000 970-874-3251
KDNRICAO ID KDNR Denver / Stapleton International, Co.
KAPAFAA ID APA, ASOS, KAPA 081753Z 11006KT 10SM FEW120 BKN230 03/M07 A3039 RMK AO2 SLP329 T00331072 10039 21083 50009 Follow KAPA on AV Mobile DENVER CENTENNIAL AIRPORT 120.300 303-706-9098
KDENFAA ID DEN, ASOS, KDEN 081753Z 12003KT 10SM FEW080 SCT150 BKN220 02/M07 A3040 Follow KDEN on AV Mobile DENVER INTERNATIONAL AIRPORT 125.600 303-342-0838
KFTGFAA ID FTG, AWOS-3, KFTG 081747Z 17005KT 50SM FEW080 SCT120 SCT200 01/M06 A3042 Follow KFTG on AV Mobile Front Range Airport 119.025 303-261-9104
KBJCFAA ID BJC, AWOS-3, KBJC 081745Z 13006KT 60SM BKN220 04/M07 A3039 Follow KBJC on AV Mobile Rocky Mountain Metro Airport 126.250 720-887-8067
K4V5ICAO ID K4V5 Durango Aviation Weather Reporting Station
KDROFAA ID DRO, ASOS, KDRO 081753Z AUTO 00000KT 10SM CLR M01/M08 A3048 RMK AO2 SLP383 T10061078 11006 21156 50002 Follow KDRO on AV Mobile DURANGO-LA PLATA COUNTY AIRPORT 120.625 970-259-3579
KEGEFAA ID EGE, AWOS-3, KEGE 081750Z 00000KT 10SM CLR M04/M09 A3064 Follow KEGE on AV Mobile Eagle County Regional 135.575 970-524-7386
CO90FAA ID CO90, ASOS, K2V5 081845Z AUTO 31016G20KT 10SM CLR 03/M07 A3038 RMK AO2 T00301075 Follow  on AV Mobile USAF Academy Bullseye Aux Airstrip 118.325 719-683-3346
K0COFAA ID 0CO, AWOS-3, K0CO 081815Z AUTO 32029G37KT 7SM CLR M09/M15 A3049 RMK AO2 Follow K0CO on AV Mobile EMPIRE 134.325
KEIKFAA ID EIK, AWOS-3, KEIK 081815Z AUTO 00000KT 10SM CLR 04/M06 A3040 RMK AO2 T00421059 Follow KEIK on AV Mobile Erie Municipal Airport 133.825 303-604-4339
KFCSFAA ID FCS, KFCS 081758Z 15004KT 10SM CLR M02/M06 A3041 RMK AO2A SLP367 4/004 T10171059 11017 21087 51013 $ Follow KFCS on AV Mobile Fort Carson
KFCLICAO ID KFCL Fort Collins Supplementary Aviation Weather Reporting Station
KFNLFAA ID FNL, AWOS-3, KFNL 081815Z AUTO 00000KT 10SM CLR M03/M07 A3041 RMK AO1 Follow KFNL on AV Mobile Fort Collins/Loveland, Fort Collins-Loveland Municipal Airport 135.075 970-669-9187
KFMMFAA ID FMM, AWOS-3, KFMM 081815Z AUTO 29008KT 10SM CLR 00/M06 A3040 RMK AO2 T00011058 Follow KFMM on AV Mobile Fort Morgan Municipal Airport 132.950 970-867-4823
KGNBFAA ID GNB, AWOS-3PT Granby-Grand County Airport 119.925 970-887-1803
KGJTFAA ID GJT, ASOS, KGJT 081753Z 07004KT 10SM CLR M02/M07 A3062 Follow KGJT on AV Mobile GRAND JUNCTION WALKER FIELD 118.550 970-245-7881
KGXYFAA ID GXY, AWOS-3, KGXY 081815Z 00000KT SCT080 M03/M07 A3041 RMK AO1 Follow KGXY on AV Mobile Greeley, Greeley-Weld County Airport 135.175 970-352-3511
K2V9ICAO ID K2V9 Gunnison Aviation Weather Reporting Station
KGUCFAA ID GUC, AWOS-3, KGUC 081815Z AUTO 00000KT 10SM CLR M13/M15 A3062 RMK AO1 Follow KGUC on AV Mobile Gunnison, Gunnison-Crested Butte Regional Airport 135.075 970-641-3240
KHDNFAA ID HDN, AWOS-3, KHDN 081815Z AUTO 00000KT 10SM CLR M09/M13 A3059 RMK AO1 Follow KHDN on AV Mobile Hayden, Yampa Valley Airport 119.275 970-276-3690
KHEQFAA ID HEQ, AWOS-3, KHEQ 081815Z AUTO 30010G15KT 10SM CLR 03/M06 A3037 RMK AO2 Follow KHEQ on AV Mobile Holyoke Airport 119.275 970-854-3679
K20VFAA ID 20V, AWOS-3, K20V 081816Z AUTO 00000KT 10SM CLR M02/M10 A3059 RMK AO2 Follow K20V on AV Mobile Kremmling, Mc Elroy Airfield 118.425 970-724-9659
KLHXFAA ID LHX, ASOS, KLHX 081753Z AUTO 25011KT 10SM CLR 03/M04 A3045 RMK AO2 SLP326 T00331044 10033 21050 50007 Follow KLHX on AV Mobile LA JUNTA MUNICIPAL AIRPORT 135.525 719-384-5961
KVTPFAA ID VTP, AWOS-3, KVTP 081811Z AUTO 23005KT 10SM CLR 01/M11 A3046 RMK AO2 Follow KVTP on AV Mobile La Veta Mountain, La Veta Pass 119.925 719-587-3120
KLAAFAA ID LAA, ASOS, KLAA 081753Z AUTO 28015KT 10SM CLR 04/M05 A3044 RMK AO2 SLP317 T00391050 10039 21067 51007 TSNO Follow KLAA on AV Mobile LAMAR MUNICIPAL AIRPORT 135.625 719-336-3854
KLXVFAA ID LXV, ASOS, KLXV 081753Z AUTO 34014G18KT 10SM CLR M01/M10 A3052 Follow KLXV on AV Mobile LEADVILLE LAKE CO 118.375 719-486-2735
KLICFAA ID LIC, ASOS, KLIC 081755Z AUTO 28004KT 10SM FEW075 01/M07 A3041 RMK AO2 SLP338 T00061067 10011 21117 51010 Follow KLIC on AV Mobile LIMON MUNICIPAL AIRPORT 121.125 719-775-0515
KLMOFAA ID LMO, AWOS-3, KLMO 081814Z AUTO 25003KT 10SM CLR 03/M06 A3043 RMK AO2 T00311061 Follow KLMO on AV Mobile Vance Brand Airport 120.000 303-684-7545
KEEOFAA ID EEO, ASOS, KEEO 081753Z AUTO 00000KT 10SM CLR M06/M10 A3061 RMK AO2 SLP431 I6000 T10611100 11061 21178 51009 Follow KEEO on AV Mobile MEEKER AIRPORT 135.525 970-878-5036
KMYPFAA ID MYP, AWOS-3, KMYP 081816Z AUTO 23016G24KT 10SM CLR M06/M11 A3063 RMK AO2 Follow KMYP on AV Mobile Salida Mountain, Monarch Pass 124.175 719-539-4436
KMTJFAA ID MTJ, ASOS, KMTJ 081753Z AUTO 00000KT 10SM CLR 01/M08 A3062 RMK AO2 SLP389 T00111083 10011 21117 53002 Follow KMTJ on AV Mobile MONTROSE REGIONAL AIRPORT 135.225 970-249-1534
KMNHFAA ID MNH, AWOS-3, KMNH 081818Z AUTO 00000KT 10SM CLR 00/M08 A3040 RMK AO2 Follow KMNH on AV Mobile Elbert Mountain, Monument Pass 134.375 303-648-3479
KCRVICAO ID KCRV Nederland Mountain, Corona Pass
KAIBFAA ID AIB, AWOS-3, KAIB 081815Z AUTO 00000KT 10SM CLR 01/M06 A3059 RMK AO2 Follow KAIB on AV Mobile Hopkins Field Airport 132.525 970-864-2325
KPSOFAA ID PSO, AWOS-3, KPSO 081815Z AUTO 00000KT 10SM CLR 02/M07 A3046 RMK AO2 LTG DSNT S T00161068 Follow KPSO on AV Mobile Stevens Field Airport 127.175 970-731-0365
KPEFICAO ID KPEF Peterson Air Force Base
KPUXICAO ID KPUX Pueblo NEXRAD
KPUBFAA ID PUB, ASOS, KPUB 081753Z AUTO 22003KT 10SM CLR 02/M05 A3045 Follow KPUB on AV Mobile PUEBLO MEMORIAL AIRPORT 125.250 719-948-2803
4V0FAA ID 4V0, AWOS-3PT, K2V5 081845Z AUTO 31016G20KT 10SM CLR 03/M07 A3038 RMK AO2 T00301075 Follow  on AV Mobile RANGELY 119.025 970-675-2339
K1V1ICAO ID K1V1 Rifle Aviation Weather Reporting Station
KRILFAA ID RIL, ASOS, KRIL 081753Z AUTO 00000KT 10SM CLR M04/M09 A3063 RMK AO2 SLP425 I6000 T10391094 11039 21144 50003 Follow KRIL on AV Mobile RIFLE GARFIELD COUNTY RGNL 135.275 970-625-2206
K04VFAA ID 04V, AWOS-3, K04V 081815Z AUTO 33007KT 10SM CLR 05/M07 A3048 RMK AO2 Follow K04V on AV Mobile Saguache, Saguache Municipal Airport 118.625 719-655-2229
KS29ICAO ID KS29 Salida
KANKFAA ID ANK, AWOS-3, KANK 060035Z AUTO 25006KT 10SM CLR M03/M14 A3037 RMK AO1 T10311142 Follow KANK on AV Mobile Harriet Alexander Field Airport 133.850 719-539-5268
KSPDICAO ID KSPD, KSPD 081756Z AUTO 32016G21KT 06/M08 A3042 RMK AO1 SLP310 T00611083 10061 21067 50002 Follow KSPD on AV Mobile SPRINGFIELD COMANCHE NATL
KSBSFAA ID SBS, AWOS-3, KSBS 081816Z AUTO 00000KT 10SM OVC043 M07/M11 A3059 RMK AO1 T10741109 Follow KSBS on AV Mobile Steamboat Springs 118.325 970-879-7794
KSTKFAA ID STK, AWOS-3, KSTK 081815Z AUTO 33014G17KT 10SM SCT065 02/M04 A3038 RMK AO2 Follow KSTK on AV Mobile Sterling Municipal Airport 118.525 970-526-3009
K5SMFAA ID 5SM, AWOS-3, K5SM 081815Z AUTO 00000KT 10SM CLR M02/M06 A3064 RMK AO2 Follow K5SM on AV Mobile Sunlight 126.075 970-384-3380
KTEXFAA ID TEX, AWOS-3, KTEX 081815Z AUTO 29015G22KT 280V010 10SM CLR 05/M09 A3055 RMK AO2 T00531095 Follow KTEX on AV Mobile Telluride, Telluride Regional Airport 118.325 970-728-1534
KTADFAA ID TAD, ASOS, KTAD 081754Z AUTO 09004KT 10SM CLR 03/M07 A3043 RMK AO2 SLP324 T00331067 10039 21083 51019 Follow KTAD on AV Mobile Trinidad, Perry Stokes Airport 119.025 719-845-1156
K33VFAA ID 33V, AWOS-3, K33V 081816Z AUTO 22003KT 10SM CLR M02/M09 A3054 RMK AO2 Follow K33V on AV Mobile WALDEN 118.625 970-723-4513
4V1FAA ID 4V1, AWOS-3, K2V5 081845Z AUTO 31016G20KT 10SM CLR 03/M07 A3038 RMK AO2 T00301075 Follow  on AV Mobile Spanish Peaks Airfield 123.600 719-738-1053
K4BMFAA ID 4BM, AWOS-3, K4BM 081816Z AUTO 35013G27KT 300V020 10SM CLR M01/M10 A3048 RMK AO2 Follow K4BM on AV Mobile Wilkerson Pass 132.3 303-512-4418
KC96ICAO ID KC96 Winter Park Resort
KCPWFAA ID CPW, AWOS-3, KCPW 081819Z AUTO 02021G26KT 10SM CLR 00/M12 A3057 RMK AO2 Follow KCPW on AV Mobile Pagosa Springs, Wolf Creek Pass 121.125 970-264-2180
K2V5FAA ID 2V5, AWOS-3, K2V5 081835Z AUTO 31016G21KT 10SM CLR 03/M08 A3038 RMK AO2 T00271077 Follow K2V5 on AV Mobile Wray Municipal Airport 118.250 970-332-5930
2V6FAA ID 2V6, AWOS-3, K2V5 081845Z AUTO 31016G20KT 10SM CLR 03/M07 A3038 RMK AO2 T00301075 Follow  on AV Mobile YUMA 135.375 970-848-3007

Click on the AV Mobile icon AV Mobile icon by any station to follow that AWOS feed on AirportView.net Mobile.

Legend: Commercial service airport with AWOS Commercial Airport AWOSNon-Commercial service airport with AWOS Non-Commercial Airport AWOS
Airport AWOS - Click symbol for weather report Fort Morgan Municipal Airport KFMM 081815Z AUTO 29008KT 10SM CLR 00/M06 A3040 RMK AO2 T00011058 Hopkins Field Airport KAIB 081815Z AUTO 00000KT 10SM CLR 01/M06 A3059 RMK AO2 Telluride, Telluride Regional Airport KTEX 081815Z AUTO 29015G22KT 280V010 10SM CLR 05/M09 A3055 RMK AO2 T00531095 Greeley, Greeley-Weld County Airport KGXY 081815Z 00000KT SCT080 M03/M07 A3041 RMK AO1 Front Range Airport KFTG 081747Z 17005KT 50SM FEW080 SCT120 SCT200 01/M06 A3042 Rocky Mountain Metro Airport KBJC 081745Z 13006KT 60SM BKN220 04/M07 A3039 DENVER CENTENNIAL AIRPORT KAPA 081753Z 11006KT 10SM FEW120 BKN230 03/M07 A3039 RMK AO2 SLP329 T00331072 10039 21083 50009 DENVER INTERNATIONAL AIRPORT KDEN 081753Z 12003KT 10SM FEW080 SCT150 BKN220 02/M07 A3040 Fort Collins/Loveland, Fort Collins-Loveland Municipal Airport KFNL 081815Z AUTO 00000KT 10SM CLR M03/M07 A3041 RMK AO1 Boulder Municipal Airport KBDU 081817Z AUTO 36007KT 10SM CLR 01/M06 A3041 RMK AO2 Vance Brand Airport KLMO 081814Z AUTO 25003KT 10SM CLR 03/M06 A3043 RMK AO2 T00311061 Sterling Municipal Airport KSTK 081815Z AUTO 33014G17KT 10SM SCT065 02/M04 A3038 RMK AO2 Holyoke Airport KHEQ 081815Z AUTO 30010G15KT 10SM CLR 03/M06 A3037 RMK AO2 COLORADO PLAINS REGIONAL KAKO 081753Z AUTO 31012KT 10SM CLR M02/M07 A3037 RMK AO2 SLP322 T10171067 11017 21089 50002 Kit Carson County Airport KITR 081753Z AUTO 33015G23KT 10SM CLR 01/M09 A3038 RMK AO2 PK WND 32027/1730 SLP310 T00061089 10006 21067 51003 LIMON MUNICIPAL AIRPORT KLIC 081755Z AUTO 28004KT 10SM FEW075 01/M07 A3041 RMK AO2 SLP338 T00061067 10011 21117 51010 COLORADO SPRINGS MUNI KCOS 081754Z 16004KT 10SM SCT220 M02/M07 A3042 LAMAR MUNICIPAL AIRPORT KLAA 081753Z AUTO 28015KT 10SM CLR 04/M05 A3044 RMK AO2 SLP317 T00391050 10039 21067 51007 TSNO LA JUNTA MUNICIPAL AIRPORT KLHX 081753Z AUTO 25011KT 10SM CLR 03/M04 A3045 RMK AO2 SLP326 T00331044 10033 21050 50007 Trinidad, Perry Stokes Airport KTAD 081754Z AUTO 09004KT 10SM CLR 03/M07 A3043 RMK AO2 SLP324 T00331067 10039 21083 51019 PUEBLO MEMORIAL AIRPORT KPUB 081753Z AUTO 22003KT 10SM CLR 02/M05 A3045 CANON CITY 1V6 SAN LUIS VALLEY REGIONAL KALS 081752Z AUTO 26003KT 10SM CLR 02/M10 A3048 Saguache, Saguache Municipal Airport K04V 081815Z AUTO 33007KT 10SM CLR 05/M07 A3048 RMK AO2 Granby-Grand County Airport KGNB WALDEN 33V Steamboat Springs KSBS 081816Z AUTO 00000KT 10SM OVC043 M07/M11 A3059 RMK AO1 T10741109 Hayden, Yampa Valley Airport KHDN 081815Z AUTO 00000KT 10SM CLR M09/M13 A3059 RMK AO1 Kremmling, Mc Elroy Airfield K20V 081816Z AUTO 00000KT 10SM CLR M02/M10 A3059 RMK AO2 LEADVILLE LAKE CO KLXV 081753Z AUTO 34014G18KT 10SM CLR M01/M10 A3052 Eagle County Regional KEGE 081750Z 00000KT 10SM CLR M04/M09 A3064 CRAIG MOFFAT AIRPORT KCAG 081753Z AUTO 00000KT 10SM CLR M10/M14 A3063 MEEKER AIRPORT KEEO 081753Z AUTO 00000KT 10SM CLR M06/M10 A3061 RMK AO2 SLP431 I6000 T10611100 11061 21178 51009 ASPEN-PITKIN COUNTY AIRPORT KASE 081753Z 00000KT 10SM CLR M02/M10 A3057 Gunnison, Gunnison-Crested Butte Regional Airport KGUC 081815Z AUTO 00000KT 10SM CLR M13/M15 A3062 RMK AO1 DURANGO-LA PLATA COUNTY AIRPORT  KDRO 081753Z AUTO 00000KT 10SM CLR M01/M08 A3048 RMK AO2 SLP383 T10061078 11006 21156 50002 Stevens Field Airport KPSO 081815Z AUTO 00000KT 10SM CLR 02/M07 A3046 RMK AO2 LTG DSNT S T00161068 CORTEZ MONTEZUMA COUNTY AIRPORT  KCEZ 081753Z AUTO 06003KT 10SM CLR 03/M06 A3051 RMK AO2 SLP345 T00331061 10033 21106 51004 MONTROSE REGIONAL AIRPORT KMTJ 081753Z AUTO 00000KT 10SM CLR 01/M08 A3062 RMK AO2 SLP389 T00111083 10011 21117 53002 RIFLE GARFIELD COUNTY RGNL KRIL 081753Z AUTO 00000KT 10SM CLR M04/M09 A3063 RMK AO2 SLP425 I6000 T10391094 11039 21144 50003 GRAND JUNCTION WALKER FIELD KGJT 081753Z 07004KT 10SM CLR M02/M07 A3062 Blake Field Airport KAJZ 081815Z AUTO 10003KT 10SM CLR 02/M07 A3062 RMK AO2 T00151067 Central Colorado Regional Airport KAEJ 081815Z AUTO 33021G28KT 10SM CLR 04/M08 A3045 RMK AO2 T00401076 Harriet Alexander Field Airport KANK 060035Z AUTO 25006KT 10SM CLR M03/M14 A3037 RMK AO1 T10311142 Erie Municipal Airport KEIK 081815Z AUTO 00000KT 10SM CLR 04/M06 A3040 RMK AO2 T00421059 Wray Municipal Airport K2V5 081835Z AUTO 31016G21KT 10SM CLR 03/M08 A3038 RMK AO2 T00271077
Legend: High Mountain AWOS Mountain Pass AWOS
Mountain Pass AWOS - Click symbol for weather report Pagosa Springs, Wolf Creek Pass KCPW 081819Z AUTO 02021G26KT 10SM CLR 00/M12 A3057 RMK AO2 Saguache, Saguache Municipal Airport K04V 081815Z AUTO 33007KT 10SM CLR 05/M07 A3048 RMK AO2 Kremmling, Mc Elroy Airfield K20V 081816Z AUTO 00000KT 10SM CLR M02/M10 A3059 RMK AO2 La Veta Mountain, La Veta Pass KVTP 081811Z AUTO 23005KT 10SM CLR 01/M11 A3046 RMK AO2 Salida Mountain, Monarch Pass KMYP 081816Z AUTO 23016G24KT 10SM CLR M06/M11 A3063 RMK AO2 Cottonwood Pass K7BM 081810Z AUTO 24010G18KT 10SM SCT070 06/M12 A3049 RMK AO2 Elbert Mountain, Monument Pass KMNH 081818Z AUTO 00000KT 10SM CLR 00/M08 A3040 RMK AO2 Wilkerson Pass K4BM 081816Z AUTO 35013G27KT 300V020 10SM CLR M01/M10 A3048 RMK AO2 Copper Mountain, Red Cliff Pass KCCU 081816Z AUTO 29015G19KT 10SM CLR M04/M10 A3055 RMK AO2 EMPIRE 0CO Sunlight K5SM 081815Z AUTO 00000KT 10SM CLR M02/M06 A3064 RMK AO2
Garmin Weather Avemco Insurance Company